This is the latest recevied weather packets stored in our database for station/object N7ZEF. If no packets are shown the sender has not sent any weather packets the latest 10 day(s).
| Time | Temp. | Humidity | Pressure | Rain* | Wind** | Luminosity | Snow |
|---|---|---|---|---|---|---|---|
| 1777604499 | 3.89° C | 51% | 1022.5 hPa | 0 mm | - | - | - |
| 1777603898 | 4.44° C | 50% | 1022.5 hPa | 0 mm | - | - | - |
| 1777603296 | 4.44° C | 48% | 1022.2 hPa | 0 mm | - | - | - |
| 1777602695 | 5° C | 46% | 1022.2 hPa | 0 mm | - | - | - |
| 1777602094 | 5.56° C | 44% | 1022 hPa | 0 mm | - | - | - |
| 1777601492 | 6.11° C | 43% | 1022 hPa | 0 mm | - | - | - |
| 1777600891 | 6.67° C | 41% | 1021.7 hPa | 0 mm | - | - | - |
| 1777600290 | 6.67° C | 39% | 1021.7 hPa | 0 mm | - | - | - |
| 1777599688 | 6.67° C | 39% | 1021.7 hPa | 0 mm | - | - | - |
| 1777599087 | 7.22° C | 37% | 1021.7 hPa | 0 mm | - | - | - |
| 1777598485 | 7.22° C | 39% | 1021.7 hPa | 0 mm | - | - | - |
| 1777597884 | 7.22° C | 39% | 1021.7 hPa | 0 mm | - | - | - |
| 1777597283 | 7.22° C | 41% | 1021.7 hPa | 0 mm | - | - | - |
| 1777596681 | 7.78° C | 40% | 1021.7 hPa | 0 mm | - | - | - |
| 1777596080 | 8.33° C | 39% | 1021.6 hPa | 0 mm | - | - | - |
| 1777595479 | 7.78° C | 39% | 1021.6 hPa | 0 mm | - | - | - |
| 1777594877 | 7.22° C | 40% | 1021.7 hPa | 0 mm | - | - | - |
| 1777594276 | 7.22° C | 39% | 1021.8 hPa | 0 mm | - | - | - |
| 1777593674 | 7.78° C | 37% | 1021.7 hPa | 0 mm | - | - | - |
| 1777593073 | 8.33° C | 41% | 1021.8 hPa | 0 mm | - | - | - |
| 1777592472 | 7.78° C | 42% | 1021.7 hPa | 0 mm | - | - | - |
| 1777591870 | 8.33° C | 41% | 1021.7 hPa | 0 mm | - | - | - |
| 1777591269 | 8.33° C | 40% | 1021.7 hPa | 0 mm | - | - | - |
| 1777590668 | 8.33° C | 40% | 1021.6 hPa | 0 mm | - | - | - |
| 1777590066 | 7.78° C | 42% | 1021.8 hPa | 0 mm | - | - | - |
* Rain latest hour (hover to see other rain measurements)
** Current wind speed in m/s (hover to see current wind gust speed)